This is the latest recevied weather packets stored in our database for station/object KF0EZB. If no packets are shown the sender has not sent any weather packets the latest 10 day(s).
| Time | Temp. | Humidity | Pressure | Rain* | Wind** | Luminosity | Snow |
|---|---|---|---|---|---|---|---|
| 1777564106 | 9.44° C | 97% | 1020.4 hPa | 0 mm | - | 113 W/m² | - |
| 1777559557 | 8.89° C | 97% | 1020.4 hPa | 0 mm | - | 103 W/m² | - |
| 1777557431 | 8.33° C | 96% | 1020.4 hPa | 0 mm | - | 69 W/m² | - |
| 1777556219 | 7.78° C | 95% | 1020.7 hPa | 1.78 mm | - | 40 W/m² | - |
| 1777555611 | 7.78° C | 95% | 1020.3 hPa | 0 mm | - | 34 W/m² | - |
| 1777555308 | 7.22° C | 95% | 1020.3 hPa | 0 mm | - | 29 W/m² | - |
| 1777553489 | 7.22° C | 93% | 1020 hPa | 0 mm | - | 15 W/m² | - |
| 1777552575 | 7.22° C | 91% | 1019.5 hPa | 0 mm | - | 12 W/m² | - |
| 1777551969 | 7.22° C | 90% | 1019.6 hPa | 1.27 mm | - | 6 W/m² | - |
| 1777551666 | 7.22° C | 89% | 1019.3 hPa | 0 mm | - | 6 W/m² | - |
| 1777551364 | 7.22° C | 88% | 1019.4 hPa | 0 mm | - | 6 W/m² | - |
| 1777551060 | 7.78° C | 87% | 1019.7 hPa | 1.78 mm | - | 5 W/m² | - |
| 1777550453 | 7.78° C | 84% | 1019.4 hPa | 1.27 mm | - | 0 W/m² | - |
| 1777550149 | 7.78° C | 83% | 1019.6 hPa | 0 mm | - | 0 W/m² | - |
| 1777548935 | 7.78° C | 81% | 1019 hPa | 0 mm | - | 0 W/m² | - |
| 1777548328 | 8.33° C | 81% | 1018.9 hPa | 0 mm | - | 0 W/m² | - |
| 1777547727 | 8.33° C | 81% | 1019 hPa | 0 mm | - | 0 W/m² | - |
| 1777547423 | 8.33° C | 81% | 1019.1 hPa | 0 mm | - | 0 W/m² | - |
| 1777546818 | 8.33° C | 80% | 1018.4 hPa | 0 mm | - | 0 W/m² | - |
| 1777546212 | 8.33° C | 80% | 1018.5 hPa | 0 mm | - | 0 W/m² | - |
| 1777545909 | 8.33° C | 80% | 1018.5 hPa | 0 mm | - | 0 W/m² | - |
| 1777545301 | 8.33° C | 81% | 1018.4 hPa | 0 mm | - | 0 W/m² | - |
| 1777544999 | 8.33° C | 82% | 1018.5 hPa | 0 mm | - | 0 W/m² | - |
| 1777544695 | 8.33° C | 82% | 1018.2 hPa | 0 mm | - | 0 W/m² | - |
| 1777544391 | 8.33° C | 83% | 1018.2 hPa | 0 mm | - | 0 W/m² | - |
* Rain latest hour (hover to see other rain measurements)
** Current wind speed in m/s (hover to see current wind gust speed)